Decoded Metar for LWSK (SKOPJE in FORMER MACEDONIA) (IATA:SKP) | Meteo·Mobile Aviation Weather
aviador You're here:

LWSK Decoded Metar

SKOPJE in FORMER MACEDONIA
Report Time2018-08-19 05:30:00
UTC Time2018-08-19 05:26:51
Flight Rules vfr VFR
WindCalm
Visibility9999 m
Phenomena:N/A
Clouds:Few 100 Hf
Expected CloudBase > 800 ft AGL from Temp-Dew spread
CeilingNone
Temp19°C (ISA +6)
Dew Point17°C (88% RH)
QNH1018 hPa
Density Alt1,526 ft
Elevation784 ft
Report Wrong Elevation
Raw Report
METAR LWSK 190530Z 00000KT 9999 FEW100 19/17 Q1018 NOSIG=

Extra information for LWSK:More info

Metar Taf Metar & Taf Last 4 Metars F.Rules Stats Wind Profile Meteogram Temp Stats Airport Information Weather charts Add Link Nearby VenuesMetar ALERT Operation Metar Decoded Social comments

Airport Page